LFQQ/LIL METAR and TAF weather

Enter ICAO airport designator
Station Type Date Time Source
LFQQ METAR 2023/12/09 11:00 UTC NOAA

LFQQ 091100Z AUTO 16021G33KT 3500 RA BR OVC011/// ///TCU 08/08 Q0997 TEMPO 2000 RA BKN004 BKN011 BKN030TCU


Station Type Date Time Source
LFQQ Decoded METAR 2023/12/09 11:00 UTC NOAA

Lille, France (LFQQ) 50-34N 003-06E 52M
Dec 09, 2023 - 06:00 AM EST / 2023.12.09 1100 UTC
Wind: from the SSE (160 degrees) at 24 MPH (21 KT) gusting to 38 MPH (33 KT):0
Visibility: 2 mile(s):0
Sky conditions: overcast
Weather: rain; mist; Towering cumulus clouds observed
Temperature: 46 F (8 C)
Dew Point: 46 F (8 C)
Relative Humidity: 100%
Pressure (altimeter): 29.44 in. Hg (0997 hPa)
ob: LFQQ 091100Z AUTO 16021G33KT 3500 RA BR OVC011/// ///TCU 08/08 Q0997 TEMPO 2000 RA BKN004 BKN011 BKN030TCU
cycle: 11

Station Type Date Time Source
LFQQ TAF 2023/12/09 09:51 UTC NOAA

TAF
AMD LFQQ 090944Z 0909/1012 19010KT 9999 BKN007 OVC050
BECMG 0909/0911 16015G25KT 4000 -RA BKN011 OVC020TCU
TEMPO 0911/0916 20020G38KT 2000 RA BKN004 BKN011 BKN030TCU
BECMG 0916/0918 27025G38KT 9999 NSW BKN030
BECMG 0923/1003 24015G25KT

Example: see airport list